createdAt,value
2023-01-17T00:01:13.372Z,4.00
2023-01-17T00:03:58.607Z,4.00
2023-01-17T00:06:44.287Z,3.90
2023-01-17T00:09:31.191Z,3.90
2023-01-17T00:11:58.553Z,3.90
2023-01-17T00:14:25.441Z,3.90
2023-01-17T00:16:51.873Z,3.90
2023-01-17T00:19:36.669Z,3.90
2023-01-17T00:22:28.585Z,3.80
2023-01-17T00:25:13.503Z,3.80
2023-01-17T00:27:39.955Z,3.80
2023-01-17T00:30:07.802Z,3.80
2023-01-17T00:32:34.216Z,3.80
2023-01-17T00:35:00.635Z,3.80
2023-01-17T00:37:27.033Z,3.80
2023-01-17T00:39:53.448Z,3.80
2023-01-17T00:42:19.815Z,3.80
2023-01-17T00:45:04.677Z,3.80
2023-01-17T00:47:49.608Z,3.90
2023-01-17T00:50:34.530Z,3.90
2023-01-17T00:53:23.512Z,3.90
2023-01-17T00:56:08.337Z,3.90
2023-01-17T00:58:53.579Z,3.90
2023-01-17T01:01:38.649Z,3.90
2023-01-17T01:04:23.874Z,3.80
2023-01-17T01:07:08.767Z,3.80
2023-01-17T01:09:53.598Z,3.90
2023-01-17T01:12:38.520Z,3.90
2023-01-17T01:15:24.222Z,4.00
2023-01-17T01:18:09.050Z,4.00
2023-01-17T01:20:54.061Z,3.90
2023-01-17T01:23:38.919Z,4.00
2023-01-17T01:26:23.739Z,4.10
2023-01-17T01:29:08.473Z,4.10
2023-01-17T01:31:53.518Z,4.10
2023-01-17T01:34:20.001Z,4.10
2023-01-17T01:36:46.437Z,4.20
2023-01-17T01:39:12.864Z,4.20
2023-01-17T01:41:39.756Z,4.20
2023-01-17T01:44:41.088Z,4.20
2023-01-17T01:47:10.741Z,4.20
2023-01-17T01:49:38.054Z,4.30
2023-01-17T01:52:07.778Z,4.30
2023-01-17T01:54:44.532Z,4.30
2023-01-17T01:57:15.784Z,4.30
2023-01-17T01:59:48.912Z,4.20
2023-01-17T02:02:15.829Z,4.20
2023-01-17T03:45:38.348Z,3.60
2023-01-17T03:48:06.176Z,3.50
2023-01-17T03:50:32.664Z,3.40
2023-01-17T03:52:59.156Z,3.40
2023-01-17T03:55:25.698Z,3.40
2023-01-17T03:57:52.206Z,3.40
2023-01-17T04:00:18.971Z,3.50
2023-01-17T04:02:45.547Z,3.60
2023-01-17T04:05:12.147Z,3.50
2023-01-17T04:07:38.563Z,3.60
2023-01-17T04:10:05.767Z,3.70
2023-01-17T04:12:32.280Z,3.70
2023-01-17T04:14:58.732Z,3.70
2023-01-17T04:17:25.253Z,3.70
2023-01-17T04:19:51.814Z,3.70
2023-01-17T04:22:18.245Z,3.70
2023-01-17T04:24:45.562Z,3.70
2023-01-17T04:27:14.214Z,3.70
2023-01-17T04:29:40.735Z,3.80
2023-01-17T04:32:07.310Z,3.80
2023-01-17T04:34:33.759Z,3.80
2023-01-17T04:37:00.186Z,3.70
2023-01-17T04:39:26.666Z,3.70
2023-01-17T04:41:53.131Z,3.80
2023-01-17T04:44:19.618Z,3.80
2023-01-17T04:46:46.089Z,3.90
2023-01-17T04:49:12.575Z,3.90
2023-01-17T04:51:39.039Z,4.00
2023-01-17T04:54:05.509Z,3.90
2023-01-17T04:56:31.994Z,3.90
2023-01-17T04:58:58.596Z,3.90
2023-01-17T05:01:25.736Z,3.90
2023-01-17T05:03:52.388Z,3.90
2023-01-17T05:06:18.879Z,4.00
2023-01-17T05:08:45.341Z,4.10
2023-01-17T05:11:11.809Z,4.10
2023-01-17T05:13:38.291Z,4.00
2023-01-17T05:16:04.965Z,4.00
2023-01-17T05:18:31.505Z,4.00
2023-01-17T05:21:04.830Z,4.10
2023-01-17T05:23:32.911Z,4.00
2023-01-17T05:25:59.468Z,3.90
2023-01-17T05:28:25.947Z,4.00
2023-01-17T05:30:52.452Z,4.00
2023-01-17T05:33:18.944Z,4.00
2023-01-17T05:35:45.381Z,4.00
2023-01-17T05:38:11.802Z,4.00
2023-01-17T05:40:38.403Z,3.90
2023-01-17T05:43:05.109Z,3.90
2023-01-17T05:45:33.331Z,3.90
2023-01-17T05:48:00.475Z,3.90
2023-01-17T05:50:33.346Z,3.90
2023-01-17T05:53:02.809Z,3.90
2023-01-17T05:55:31.107Z,3.90
2023-01-17T05:57:58.212Z,3.90
2023-01-17T06:00:25.273Z,3.90
2023-01-17T06:02:56.398Z,4.00
2023-01-17T06:05:24.110Z,4.00
2023-01-17T06:07:50.988Z,4.10
2023-01-17T06:10:19.935Z,4.10
2023-01-17T06:12:47.060Z,4.10
2023-01-17T06:15:15.305Z,4.10
2023-01-17T06:17:42.159Z,4.10
2023-01-17T06:20:11.093Z,4.10
2023-01-17T06:22:37.603Z,4.10
2023-01-17T06:25:04.449Z,4.10
2023-01-17T06:27:30.885Z,4.10
2023-01-17T06:29:57.394Z,4.20
2023-01-17T06:32:23.871Z,4.20
2023-01-17T06:34:50.336Z,4.20
2023-01-17T06:37:16.915Z,4.30
2023-01-17T06:39:43.463Z,4.30
2023-01-17T06:42:09.957Z,4.30
2023-01-17T06:44:36.391Z,4.30
2023-01-17T06:47:03.077Z,4.30
2023-01-17T06:49:29.509Z,4.40
2023-01-17T06:51:55.936Z,4.40
2023-01-17T06:54:22.495Z,4.30
2023-01-17T06:56:48.923Z,4.30
2023-01-17T06:59:15.352Z,4.30
2023-01-17T07:01:41.966Z,4.30
2023-01-17T07:04:08.571Z,4.30
2023-01-17T07:06:36.353Z,4.40
2023-01-17T07:09:04.132Z,4.40
2023-01-17T07:11:31.161Z,4.40
2023-01-17T07:13:57.639Z,4.40
2023-01-17T07:16:24.334Z,4.30
2023-01-17T07:18:51.731Z,4.30
2023-01-17T07:21:18.579Z,4.20
2023-01-17T07:23:45.094Z,4.20
2023-01-17T07:26:11.564Z,4.10
2023-01-17T07:28:37.998Z,3.90
2023-01-17T07:31:07.001Z,4.00
2023-01-17T07:33:33.720Z,3.90
2023-01-17T07:36:04.118Z,3.80
2023-01-17T07:38:30.580Z,3.90
2023-01-17T07:41:00.516Z,4.00
2023-01-17T07:43:27.224Z,4.10
2023-01-17T07:45:54.170Z,4.10
2023-01-17T07:48:23.478Z,4.10
2023-01-17T07:50:54.740Z,3.90
2023-01-17T07:53:25.959Z,3.80
2023-01-17T07:55:52.774Z,3.70
2023-01-17T07:58:19.697Z,3.60
2023-01-17T08:00:46.721Z,3.60
2023-01-17T08:03:15.927Z,3.60
2023-01-17T08:05:43.798Z,3.50
2023-01-17T08:08:10.338Z,3.50
2023-01-17T08:10:36.877Z,3.50
2023-01-17T08:13:03.421Z,3.60
2023-01-17T08:15:29.931Z,3.60
2023-01-17T08:17:58.510Z,3.50
2023-01-17T08:20:27.829Z,3.50
2023-01-17T08:22:56.627Z,3.50
2023-01-17T08:25:24.959Z,3.50
2023-01-17T08:27:51.980Z,3.40
2023-01-17T08:30:18.862Z,3.50
2023-01-17T08:32:45.388Z,3.60
2023-01-17T08:35:11.814Z,3.70
2023-01-17T08:37:38.966Z,3.80
2023-01-17T08:40:06.931Z,3.80
2023-01-17T08:42:39.326Z,3.90
2023-01-17T08:45:08.029Z,4.00
2023-01-17T08:47:35.139Z,4.00
2023-01-17T08:50:01.910Z,4.00
2023-01-17T08:52:29.135Z,3.90
2023-01-17T08:54:55.682Z,4.00
2023-01-17T08:57:22.523Z,4.00
2023-01-17T08:59:49.094Z,4.10
2023-01-17T09:02:17.196Z,4.10
2023-01-17T09:04:45.183Z,4.10
2023-01-17T09:07:11.742Z,4.10
2023-01-17T09:09:38.316Z,4.20
2023-01-17T09:12:05.031Z,4.30
2023-01-17T09:14:31.490Z,4.30
2023-01-17T09:16:58.184Z,4.20
2023-01-17T09:19:24.846Z,4.20
2023-01-17T09:21:51.315Z,4.30
2023-01-17T09:24:18.035Z,4.30
2023-01-17T09:26:44.899Z,4.40
2023-01-17T09:29:13.546Z,4.50
2023-01-17T09:31:41.541Z,4.60
2023-01-17T09:34:08.488Z,4.70
2023-01-17T09:36:35.102Z,4.70
2023-01-17T09:39:02.503Z,4.80
2023-01-17T09:41:35.283Z,4.90
2023-01-17T09:44:39.003Z,5.10
2023-01-17T09:47:40.490Z,5.10
2023-01-17T09:50:37.563Z,5.00
2023-01-17T09:53:16.867Z,5.00
2023-01-17T09:55:48.669Z,5.00
2023-01-17T09:58:32.002Z,5.00
2023-01-17T10:01:17.363Z,5.00
2023-01-17T10:04:08.179Z,5.00
2023-01-17T10:06:46.856Z,4.90
2023-01-17T10:09:38.159Z,4.80
2023-01-17T10:12:28.676Z,4.80
2023-01-17T10:15:17.727Z,4.90
2023-01-17T10:18:16.597Z,4.90
2023-01-17T10:21:16.643Z,4.80
2023-01-17T10:23:46.074Z,4.90
2023-01-17T10:26:17.681Z,4.90
2023-01-17T10:28:48.690Z,5.00
2023-01-17T10:31:24.173Z,4.90
2023-01-17T10:33:55.682Z,4.90
2023-01-17T10:36:25.552Z,5.00
2023-01-17T10:38:55.097Z,5.00
2023-01-17T10:41:26.739Z,4.90
2023-01-17T10:44:20.656Z,4.90
2023-01-17T10:46:53.301Z,4.80
2023-01-17T10:49:22.506Z,4.80
2023-01-17T10:52:12.216Z,4.90
2023-01-17T10:54:59.066Z,5.00
2023-01-17T10:57:27.869Z,5.10
2023-01-17T10:59:59.699Z,5.10
2023-01-17T11:02:31.450Z,5.20
2023-01-17T11:05:03.376Z,5.30
2023-01-17T11:07:29.912Z,5.30
2023-01-17T11:09:57.974Z,5.40
2023-01-17T11:12:30.517Z,5.50
2023-01-17T11:15:10.609Z,5.50
2023-01-17T11:17:41.301Z,5.60
2023-01-17T11:20:33.202Z,5.60
2023-01-17T11:23:16.381Z,5.60
2023-01-17T11:25:58.350Z,5.70
2023-01-17T11:28:30.141Z,5.80
2023-01-17T11:31:03.534Z,5.80
2023-01-17T11:33:45.903Z,5.70
2023-01-17T11:36:24.688Z,5.90
2023-01-17T11:39:27.518Z,5.90
2023-01-17T11:41:54.491Z,6.00
2023-01-17T11:44:32.400Z,6.00
2023-01-17T11:47:13.883Z,6.00
2023-01-17T11:49:42.361Z,5.90
2023-01-17T11:52:23.422Z,5.90
2023-01-17T11:54:51.429Z,5.90
2023-01-17T11:57:30.706Z,6.00
2023-01-17T12:00:11.605Z,6.00
2023-01-17T12:02:43.751Z,5.90
2023-01-17T12:05:31.999Z,6.00
2023-01-17T12:08:16.679Z,5.90
2023-01-17T12:10:55.264Z,6.00
2023-01-17T12:13:43.427Z,6.10
2023-01-17T12:16:31.320Z,6.10
2023-01-17T12:19:06.545Z,6.10
2023-01-17T12:21:49.969Z,6.20
2023-01-17T12:24:39.369Z,6.30
2023-01-17T12:27:25.182Z,6.40
2023-01-17T12:29:58.766Z,6.40
2023-01-17T12:32:40.399Z,6.30
2023-01-17T12:35:20.929Z,6.20
2023-01-17T12:38:03.954Z,6.20
2023-01-17T12:40:38.029Z,6.10
2023-01-17T12:43:55.870Z,6.10
2023-01-17T12:46:33.919Z,6.00
2023-01-17T12:49:16.467Z,6.00
2023-01-17T12:51:47.376Z,6.10
2023-01-17T12:54:37.971Z,6.00
2023-01-17T12:57:32.031Z,6.10
2023-01-17T13:00:07.368Z,6.10
2023-01-17T13:03:05.723Z,6.10
2023-01-17T13:05:41.811Z,6.20
2023-01-17T13:08:26.383Z,6.30
2023-01-17T13:11:02.279Z,6.30
2023-01-17T13:13:30.630Z,6.20
2023-01-17T13:16:11.215Z,6.20
2023-01-17T13:18:45.044Z,6.10
2023-01-17T13:21:23.308Z,6.00
2023-01-17T13:24:08.040Z,5.90
2023-01-17T13:26:55.990Z,5.90
2023-01-17T13:29:48.591Z,5.80
2023-01-17T13:32:48.590Z,5.70
2023-01-17T13:35:21.084Z,5.70
2023-01-17T13:38:03.816Z,5.80
2023-01-17T13:40:58.353Z,5.80
2023-01-17T13:43:28.323Z,5.80
2023-01-17T13:46:00.207Z,5.70
2023-01-17T13:48:30.089Z,5.60
2023-01-17T13:50:58.981Z,5.60
2023-01-17T13:53:34.427Z,5.60
2023-01-17T13:56:19.303Z,5.60
2023-01-17T13:58:54.353Z,5.50
2023-01-17T14:01:23.969Z,5.50
2023-01-17T14:03:50.695Z,5.40
2023-01-17T14:06:41.229Z,5.40
2023-01-17T14:09:07.634Z,5.40
2023-01-17T14:11:35.981Z,5.50
2023-01-17T14:14:39.775Z,5.50
2023-01-17T14:17:29.149Z,5.40
2023-01-17T14:20:09.857Z,5.40
2023-01-17T14:22:41.067Z,5.30
2023-01-17T14:25:14.956Z,5.30
2023-01-17T14:27:53.486Z,5.30
2023-01-17T14:30:25.650Z,5.20
2023-01-17T14:33:01.287Z,5.30
2023-01-17T14:35:36.774Z,5.40
2023-01-17T14:38:15.970Z,5.30
2023-01-17T14:40:58.583Z,5.40
2023-01-17T14:43:28.541Z,5.30
2023-01-17T14:46:06.738Z,5.30
2023-01-17T14:48:33.749Z,5.20
2023-01-17T14:51:01.117Z,5.10
2023-01-17T14:53:31.806Z,5.00
2023-01-17T14:56:12.063Z,5.00
2023-01-17T14:58:39.450Z,5.00
2023-01-17T15:01:18.404Z,5.00
2023-01-17T15:03:48.170Z,4.80
2023-01-17T15:06:21.623Z,4.80
2023-01-17T15:08:48.959Z,4.70
2023-01-17T15:11:23.833Z,4.70
2023-01-17T15:13:54.753Z,4.70
2023-01-17T15:16:29.667Z,4.70
2023-01-17T15:18:57.216Z,4.70
2023-01-17T15:21:29.713Z,4.70
2023-01-17T15:24:26.641Z,4.70
2023-01-17T15:26:53.374Z,4.60
2023-01-17T15:29:25.274Z,4.50
2023-01-17T15:32:00.457Z,4.40
2023-01-17T15:34:38.576Z,4.30
2023-01-17T15:37:21.430Z,4.30
2023-01-17T15:39:48.397Z,4.20
2023-01-17T15:42:31.347Z,4.20
2023-01-17T15:45:04.204Z,4.20
2023-01-17T15:47:33.848Z,4.20
2023-01-17T15:50:02.477Z,4.20
2023-01-17T15:52:29.222Z,4.10
2023-01-17T15:55:14.584Z,4.10
2023-01-17T15:57:47.418Z,4.10
2023-01-17T16:00:18.459Z,4.10
2023-01-17T16:02:55.777Z,4.00
2023-01-17T16:05:22.829Z,4.10
2023-01-17T16:08:01.766Z,4.10
2023-01-17T16:10:31.784Z,4.10
2023-01-17T16:12:59.479Z,4.20
2023-01-17T16:15:27.223Z,4.20
2023-01-17T16:18:17.745Z,4.10
2023-01-17T16:20:56.781Z,4.00
2023-01-17T16:23:23.281Z,4.00
2023-01-17T16:25:49.726Z,3.90
2023-01-17T16:28:16.408Z,3.90
2023-01-17T16:30:44.438Z,3.90
2023-01-17T16:33:13.207Z,3.90
2023-01-17T16:35:40.263Z,3.80
2023-01-17T16:38:10.145Z,3.80
2023-01-17T16:40:43.837Z,3.90
2023-01-17T16:43:12.079Z,3.80
2023-01-17T16:45:50.317Z,3.80
2023-01-17T16:48:19.180Z,3.70
2023-01-17T16:50:49.601Z,3.70
2023-01-17T16:53:26.996Z,3.70
2023-01-17T16:55:58.888Z,3.70
2023-01-17T16:58:25.683Z,3.60
2023-01-17T17:00:52.360Z,3.60
2023-01-17T17:03:20.767Z,3.60
2023-01-17T17:05:56.258Z,3.60
2023-01-17T17:08:23.999Z,3.60
2023-01-17T17:10:50.561Z,3.60
2023-01-17T17:13:17.026Z,3.60
2023-01-17T17:15:43.904Z,3.50
2023-01-17T17:18:15.220Z,3.50
2023-01-17T17:20:42.071Z,3.60
2023-01-17T17:23:09.930Z,3.50
2023-01-17T17:25:37.075Z,3.50
2023-01-17T17:28:05.408Z,3.50
2023-01-17T17:30:31.971Z,3.50
2023-01-17T17:32:58.425Z,3.50
2023-01-17T17:35:24.947Z,3.50
2023-01-17T17:37:51.643Z,3.50
2023-01-17T17:40:18.174Z,3.40
2023-01-17T17:42:44.639Z,3.40
2023-01-17T17:45:11.285Z,3.40
2023-01-17T17:47:37.724Z,3.40
2023-01-17T17:50:04.474Z,3.40
2023-01-17T17:52:32.321Z,3.40
2023-01-17T17:54:58.869Z,3.40
2023-01-17T17:57:25.342Z,3.40
2023-01-17T17:59:51.956Z,3.50
2023-01-17T18:02:18.476Z,3.60
2023-01-17T18:04:44.967Z,3.70
2023-01-17T18:07:11.596Z,3.70
2023-01-17T18:09:39.224Z,3.70
2023-01-17T18:12:05.852Z,3.70
2023-01-17T18:14:32.350Z,3.70
2023-01-17T18:16:58.879Z,3.60
2023-01-17T18:19:26.472Z,3.60
2023-01-17T18:21:53.552Z,3.60
2023-01-17T18:24:22.865Z,3.60
2023-01-17T18:26:57.527Z,3.50
2023-01-17T18:29:25.500Z,3.60
2023-01-17T18:31:53.905Z,3.60
2023-01-17T18:34:28.981Z,3.60
2023-01-17T18:36:55.964Z,3.50
2023-01-17T18:39:28.484Z,3.50
2023-01-17T18:41:55.341Z,3.50
2023-01-17T18:44:22.568Z,3.40
2023-01-17T18:46:50.675Z,3.40
2023-01-17T18:49:19.227Z,3.30
2023-01-17T18:51:48.964Z,3.40
2023-01-17T18:54:15.828Z,3.40
2023-01-17T18:56:42.606Z,3.30
2023-01-17T18:59:12.237Z,3.30
2023-01-17T19:01:42.135Z,3.30
2023-01-17T19:04:10.142Z,3.30
2023-01-17T19:06:39.970Z,3.40
2023-01-17T19:09:08.198Z,3.40
2023-01-17T19:11:36.576Z,3.30
2023-01-17T19:14:03.648Z,3.30
2023-01-17T19:16:32.992Z,3.40
2023-01-17T19:19:05.594Z,3.50
2023-01-17T19:21:33.065Z,3.40
2023-01-17T19:24:00.066Z,3.40
2023-01-17T19:26:27.486Z,3.40
2023-01-17T19:28:56.227Z,3.40
2023-01-17T19:31:25.665Z,3.40
2023-01-17T19:33:54.195Z,3.50
2023-01-17T19:36:24.200Z,3.50
2023-01-17T19:39:03.428Z,3.50
2023-01-17T19:41:32.938Z,3.50
2023-01-17T19:44:02.270Z,3.50
2023-01-17T19:46:29.449Z,3.40
2023-01-17T19:48:57.076Z,3.40
2023-01-17T19:51:24.459Z,3.40
2023-01-17T19:53:51.246Z,3.50
2023-01-17T19:56:20.111Z,3.50
2023-01-17T19:58:47.242Z,3.60
2023-01-17T20:01:15.837Z,3.60
2023-01-17T20:03:46.120Z,3.70
2023-01-17T20:06:14.514Z,3.80
2023-01-17T20:08:41.476Z,3.90
2023-01-17T20:11:10.779Z,3.90
2023-01-17T20:13:37.399Z,3.90
2023-01-17T20:16:09.068Z,3.90
2023-01-17T20:18:36.176Z,3.80
2023-01-17T20:21:08.623Z,3.80
2023-01-17T20:23:36.674Z,3.90
2023-01-17T20:26:03.495Z,4.00
2023-01-17T20:28:35.021Z,4.00
2023-01-17T20:31:16.001Z,4.10
2023-01-17T20:33:44.609Z,4.10
2023-01-17T20:36:14.807Z,4.00
2023-01-17T20:38:44.611Z,4.10
2023-01-17T20:41:16.204Z,4.20
2023-01-17T20:43:44.839Z,4.10
2023-01-17T20:46:12.253Z,4.10
2023-01-17T20:48:44.910Z,4.20
2023-01-17T20:51:11.853Z,4.20
2023-01-17T20:53:40.818Z,4.30
2023-01-17T20:56:08.757Z,4.30
2023-01-17T20:58:35.690Z,4.30
2023-01-17T21:01:02.366Z,4.30
2023-01-17T21:03:29.332Z,4.20
2023-01-17T21:06:07.727Z,4.30
2023-01-17T21:08:39.322Z,4.20
2023-01-17T21:11:06.786Z,4.10
2023-01-17T21:13:33.823Z,4.00
2023-01-17T21:16:00.740Z,4.00
2023-01-17T21:18:31.586Z,4.00
2023-01-17T21:21:10.546Z,3.90
2023-01-17T21:23:38.698Z,3.90
2023-01-17T21:26:06.523Z,3.80
2023-01-17T21:28:35.492Z,3.90
2023-01-17T21:31:17.924Z,3.90
2023-01-17T21:33:44.420Z,3.80
2023-01-17T21:36:11.441Z,3.70
2023-01-17T21:38:38.829Z,3.70
2023-01-17T21:41:05.495Z,3.80
2023-01-17T21:43:32.017Z,3.80
2023-01-17T21:46:02.701Z,3.60
2023-01-17T21:48:29.195Z,3.60
2023-01-17T21:50:55.712Z,3.60
2023-01-17T21:53:22.172Z,3.50
2023-01-17T21:56:07.300Z,3.50
2023-01-17T21:58:45.683Z,3.40
2023-01-17T22:01:22.309Z,3.50
2023-01-17T22:04:12.523Z,3.50
2023-01-17T22:06:39.378Z,3.50
2023-01-17T22:09:06.107Z,3.60
2023-01-17T22:11:32.902Z,3.70
2023-01-17T22:13:59.595Z,3.80
2023-01-17T22:16:26.262Z,3.70
2023-01-17T22:18:52.888Z,3.70
2023-01-17T22:21:24.726Z,3.70
2023-01-17T22:23:56.735Z,3.60
2023-01-17T22:26:26.081Z,3.60
2023-01-17T22:28:52.976Z,3.60
2023-01-17T22:31:22.828Z,3.60
2023-01-17T22:34:00.213Z,3.60
2023-01-17T22:36:27.704Z,3.60
2023-01-17T22:38:54.447Z,3.50
2023-01-17T22:41:24.888Z,3.50
2023-01-17T22:43:53.449Z,3.50
2023-01-17T22:46:22.864Z,3.40
2023-01-17T22:48:49.760Z,3.30
2023-01-17T22:51:18.432Z,3.30
2023-01-17T22:53:47.891Z,3.20
2023-01-17T22:56:19.713Z,3.10
2023-01-17T22:58:48.594Z,3.00
2023-01-17T23:01:26.393Z,3.00
2023-01-17T23:04:03.506Z,2.90
2023-01-17T23:06:34.011Z,2.90
2023-01-17T23:09:05.167Z,2.90
2023-01-17T23:11:43.846Z,2.90
2023-01-17T23:14:13.485Z,2.90
2023-01-17T23:17:03.388Z,3.00
2023-01-17T23:19:35.997Z,3.10
2023-01-17T23:22:16.308Z,3.20
2023-01-17T23:24:45.594Z,3.20
2023-01-17T23:27:35.213Z,3.20
2023-01-17T23:30:04.703Z,3.30
2023-01-17T23:32:31.269Z,3.30
2023-01-17T23:34:57.742Z,3.20
2023-01-17T23:37:47.350Z,3.20
2023-01-17T23:40:14.758Z,3.20
2023-01-17T23:43:00.525Z,3.20
2023-01-17T23:45:27.332Z,3.20
2023-01-17T23:47:53.854Z,3.10
2023-01-17T23:50:20.363Z,3.10
2023-01-17T23:52:46.849Z,3.10
2023-01-17T23:55:13.666Z,3.10
2023-01-17T23:57:40.139Z,3.10
